createdAt,value
2022-11-15T00:11:28.131Z,98102.13
2022-11-15T00:13:58.764Z,98096.75
2022-11-15T00:16:25.982Z,98097.16
2022-11-15T00:18:52.555Z,98107.34
2022-11-15T00:21:19.260Z,98105.75
2022-11-15T00:23:45.895Z,98108.00
2022-11-15T00:26:14.690Z,98110.34
2022-11-15T00:28:42.406Z,98116.19
2022-11-15T00:31:13.640Z,98112.69
2022-11-15T00:33:40.256Z,98109.19
2022-11-15T00:36:13.145Z,98108.88
2022-11-15T00:38:40.980Z,98105.25
2022-11-15T00:41:09.811Z,98096.75
2022-11-15T00:43:37.145Z,98098.59
2022-11-15T00:46:04.031Z,98095.84
2022-11-15T00:48:30.929Z,98099.66
2022-11-15T00:50:57.847Z,98091.91
2022-11-15T00:53:24.470Z,98090.31
2022-11-15T00:55:51.176Z,98087.91
2022-11-15T00:58:17.858Z,98079.03
2022-11-15T01:00:44.644Z,98090.31
2022-11-15T01:03:11.376Z,98082.06
2022-11-15T01:05:39.055Z,98079.38
2022-11-15T01:08:05.873Z,98069.97
2022-11-15T01:10:32.515Z,98076.97
2022-11-15T01:12:59.198Z,98072.72
2022-11-15T01:15:25.862Z,98061.47
2022-11-15T01:17:52.559Z,98061.81
2022-11-15T01:20:20.052Z,98063.06
2022-11-15T01:22:46.667Z,98061.47
2022-11-15T01:25:13.426Z,98057.56
2022-11-15T01:27:40.124Z,98053.97
2022-11-15T01:30:07.627Z,98049.34
2022-11-15T01:32:34.253Z,98054.31
2022-11-15T01:35:00.915Z,98057.06
2022-11-15T01:37:27.535Z,98054.53
2022-11-15T01:39:54.173Z,98054.00
2022-11-15T01:42:20.940Z,98055.16
2022-11-15T01:44:52.794Z,98045.72
2022-11-15T01:47:36.579Z,98049.28
2022-11-15T01:50:26.261Z,98050.53
2022-11-15T01:52:53.085Z,98041.97
2022-11-15T01:55:27.289Z,98049.75
2022-11-15T01:58:00.759Z,98043.16
2022-11-15T02:00:27.486Z,98048.91
2022-11-15T02:02:54.228Z,98036.06
2022-11-15T02:05:20.931Z,98036.34
2022-11-15T02:07:49.086Z,98035.09
2022-11-15T02:10:21.052Z,98031.47
2022-11-15T02:12:49.428Z,98030.97
2022-11-15T02:15:16.664Z,98032.81
2022-11-15T02:17:56.014Z,98030.72
2022-11-15T02:20:29.385Z,98025.63
2022-11-15T02:23:18.356Z,98018.63
2022-11-15T02:26:13.118Z,98019.91
2022-11-15T02:29:21.122Z,98019.38
2022-11-15T02:31:59.867Z,98012.56
2022-11-15T02:34:36.391Z,98010.59
2022-11-15T02:37:24.821Z,98005.03
2022-11-15T02:43:09.970Z,98008.63
2022-11-15T02:45:59.463Z,98002.72
2022-11-15T02:48:27.315Z,97999.06
2022-11-15T02:50:54.244Z,97986.69
2022-11-15T02:53:25.548Z,97995.28
2022-11-15T02:55:54.437Z,97996.06
2022-11-15T02:58:39.208Z,97989.41
2022-11-15T03:01:38.528Z,97988.97
2022-11-15T03:04:32.479Z,97990.72
2022-11-15T03:07:08.677Z,97987.38
2022-11-15T03:09:41.782Z,97984.00
2022-11-15T03:12:16.904Z,97981.94
2022-11-15T03:17:39.182Z,97968.81
2022-11-15T03:20:08.005Z,97978.31
2022-11-15T03:22:38.192Z,97965.47
2022-11-15T03:25:09.720Z,97976.19
2022-11-15T03:27:41.736Z,97971.28
2022-11-15T03:32:48.212Z,97961.38
2022-11-15T03:35:23.265Z,97959.69
2022-11-15T03:37:59.000Z,97951.56
2022-11-15T03:40:32.169Z,97948.31
2022-11-15T03:43:25.112Z,97953.81
2022-11-15T03:45:59.070Z,97954.28
2022-11-15T03:48:30.840Z,97957.75
2022-11-15T03:50:57.648Z,97953.78
2022-11-15T03:53:24.309Z,97957.66
2022-11-15T03:55:50.915Z,97946.97
2022-11-15T03:58:17.537Z,97938.94
2022-11-15T04:00:44.240Z,97935.56
2022-11-15T04:03:10.993Z,97941.00
2022-11-15T04:05:37.590Z,97930.84
2022-11-15T04:08:04.468Z,97932.75
2022-11-15T04:10:31.112Z,97939.94
2022-11-15T04:12:57.792Z,97935.31
2022-11-15T04:15:25.070Z,97935.22
2022-11-15T04:17:54.342Z,97938.81
2022-11-15T04:20:40.921Z,97932.78
2022-11-15T04:23:37.739Z,97938.34
2022-11-15T04:26:06.909Z,97935.03
2022-11-15T04:28:33.716Z,97932.28
2022-11-15T04:31:00.587Z,97931.09
2022-11-15T04:33:27.314Z,97935.06
2022-11-15T04:36:12.607Z,97927.88
2022-11-15T04:38:39.281Z,97925.84
2022-11-15T04:41:05.963Z,97928.66
2022-11-15T04:43:33.019Z,97927.50
2022-11-15T04:45:59.955Z,97926.41
2022-11-15T04:48:26.671Z,97934.09
2022-11-15T04:50:53.288Z,97923.44
2022-11-15T04:53:19.925Z,97906.31
2022-11-15T04:55:47.741Z,97903.03
2022-11-15T04:58:14.428Z,97906.94
2022-11-15T05:00:41.227Z,97905.75
2022-11-15T05:06:00.727Z,97911.03
2022-11-15T05:08:27.516Z,97905.22
2022-11-15T05:10:54.213Z,97903.69
2022-11-15T05:13:20.931Z,97904.59
2022-11-15T05:15:48.131Z,97905.25
2022-11-15T05:18:18.223Z,97897.81
2022-11-15T05:20:47.387Z,97895.19
2022-11-15T05:23:14.009Z,97894.38
2022-11-15T05:25:40.648Z,97894.38
2022-11-15T05:28:07.308Z,97887.78
2022-11-15T05:30:34.008Z,97898.25
2022-11-15T05:35:42.949Z,97894.94
2022-11-15T05:38:09.850Z,97896.03
2022-11-15T05:40:36.715Z,97890.22
2022-11-15T05:43:05.072Z,97896.28
2022-11-15T05:45:33.872Z,97893.16
2022-11-15T05:48:06.093Z,97890.53
2022-11-15T05:50:33.339Z,97888.94
2022-11-15T05:53:05.170Z,97885.16
2022-11-15T05:55:32.803Z,97882.81
2022-11-15T05:57:59.434Z,97875.97
2022-11-15T06:00:26.117Z,97875.13
2022-11-15T06:02:52.736Z,97875.16
2022-11-15T06:05:19.349Z,97884.50
2022-11-15T06:07:45.931Z,97875.16
2022-11-15T06:10:12.553Z,97882.13
2022-11-15T06:12:39.171Z,97882.56
2022-11-15T06:15:06.272Z,97884.97
2022-11-15T06:17:32.877Z,97883.00
2022-11-15T06:19:59.522Z,97891.47
2022-11-15T06:25:05.735Z,97897.06
2022-11-15T06:27:32.631Z,97892.41
2022-11-15T06:29:59.230Z,97891.66
2022-11-15T06:32:26.042Z,97894.53
2022-11-15T06:34:52.679Z,97893.03
2022-11-15T06:37:19.312Z,97877.34
2022-11-15T06:39:45.957Z,97882.44
2022-11-15T06:42:12.672Z,97887.50
2022-11-15T06:44:39.272Z,97882.44
2022-11-15T06:47:05.897Z,97884.69
2022-11-15T06:49:32.505Z,97882.78
2022-11-15T06:51:59.258Z,97887.00
2022-11-15T06:54:25.879Z,97885.81
2022-11-15T06:56:52.524Z,97881.25
2022-11-15T06:59:19.189Z,97887.41
2022-11-15T07:01:45.931Z,97881.09
2022-11-15T07:04:12.597Z,97892.81
2022-11-15T07:06:39.261Z,97891.19
2022-11-15T07:09:05.975Z,97887.19
2022-11-15T07:11:34.359Z,97891.13
2022-11-15T07:14:01.554Z,97891.41
2022-11-15T07:16:28.164Z,97890.69
2022-11-15T07:18:54.906Z,97889.53
2022-11-15T07:21:26.323Z,97894.69
2022-11-15T07:26:28.032Z,97904.38
2022-11-15T07:28:55.768Z,97894.50
2022-11-15T07:31:23.488Z,97893.88
2022-11-15T07:33:50.061Z,97900.06
2022-11-15T07:38:47.914Z,97898.28
2022-11-15T07:41:14.566Z,97899.53
2022-11-15T07:43:41.195Z,97892.81
2022-11-15T07:46:10.598Z,97902.56
2022-11-15T07:48:44.527Z,97901.72
2022-11-15T07:51:14.748Z,97901.47
2022-11-15T07:53:42.564Z,97898.69
2022-11-15T07:56:09.290Z,97895.81
2022-11-15T07:58:36.537Z,97892.81
2022-11-15T08:01:07.396Z,97892.84
2022-11-15T08:03:35.198Z,97877.66
2022-11-15T08:06:02.781Z,97874.09
2022-11-15T08:08:29.850Z,97877.13
2022-11-15T08:10:58.805Z,97882.41
2022-11-15T08:13:25.595Z,97863.75
2022-11-15T08:15:56.419Z,97865.03
2022-11-15T08:21:00.907Z,97867.91
2022-11-15T08:23:28.999Z,97868.75
2022-11-15T08:26:01.885Z,97869.97
2022-11-15T08:28:28.565Z,97864.56
2022-11-15T08:30:55.183Z,97864.63
2022-11-15T08:33:21.898Z,97860.75
2022-11-15T08:35:49.477Z,97854.88
2022-11-15T08:40:47.363Z,97854.81
2022-11-15T08:43:14.042Z,97852.09
2022-11-15T08:45:40.713Z,97851.25
2022-11-15T08:48:07.361Z,97846.91
2022-11-15T08:50:34.106Z,97859.81
2022-11-15T08:53:07.002Z,97848.25
2022-11-15T08:55:34.039Z,97848.03
2022-11-15T08:58:00.700Z,97835.22
2022-11-15T09:00:27.380Z,97834.91
2022-11-15T09:02:53.998Z,97825.94
2022-11-15T09:05:20.857Z,97832.22
2022-11-15T09:07:47.481Z,97829.50
2022-11-15T09:10:14.323Z,97824.00
2022-11-15T09:12:40.997Z,97825.56
2022-11-15T09:15:08.360Z,97822.84
2022-11-15T09:17:34.999Z,97812.22
2022-11-15T09:20:01.893Z,97819.28
2022-11-15T09:22:29.648Z,97821.22
2022-11-15T09:24:56.287Z,97825.94
2022-11-15T09:27:22.945Z,97823.19
2022-11-15T09:29:49.586Z,97825.13
2022-11-15T09:32:16.240Z,97827.09
2022-11-15T09:34:42.845Z,97825.56
2022-11-15T09:37:09.668Z,97820.84
2022-11-15T09:39:36.327Z,97819.25
2022-11-15T09:42:24.522Z,97812.63
2022-11-15T09:45:06.051Z,97821.63
2022-11-15T09:47:47.990Z,97815.72
2022-11-15T09:50:18.844Z,97809.06
2022-11-15T09:52:46.928Z,97809.06
2022-11-15T09:55:22.491Z,97803.56
2022-11-15T09:58:01.502Z,97803.94
2022-11-15T10:00:52.679Z,97798.88
2022-11-15T10:03:27.232Z,97797.69
2022-11-15T10:06:00.327Z,97794.56
2022-11-15T10:08:27.780Z,97796.91
2022-11-15T10:11:37.652Z,97790.59
2022-11-15T10:14:12.698Z,97790.94
2022-11-15T10:17:03.524Z,97795.56
2022-11-15T10:19:32.865Z,97788.59
2022-11-15T10:22:05.185Z,97781.53
2022-11-15T10:24:38.619Z,97779.53
2022-11-15T10:27:12.401Z,97786.16
2022-11-15T10:29:44.788Z,97772.41
2022-11-15T10:32:15.599Z,97777.84
2022-11-15T10:34:42.391Z,97769.69
2022-11-15T10:37:09.571Z,97766.53
2022-11-15T10:39:36.218Z,97763.41
2022-11-15T10:42:29.265Z,97761.41
2022-11-15T10:44:56.311Z,97751.59
2022-11-15T10:47:25.219Z,97754.69
2022-11-15T10:50:05.680Z,97745.28
2022-11-15T10:52:35.850Z,97743.31
2022-11-15T10:55:07.861Z,97737.41
2022-11-15T10:57:38.848Z,97734.69
2022-11-15T11:00:30.050Z,97731.56
2022-11-15T11:02:56.645Z,97727.72
2022-11-15T11:08:17.070Z,97728.06
2022-11-15T11:11:02.748Z,97729.53
2022-11-15T11:13:35.720Z,97729.56
2022-11-15T11:16:19.252Z,97721.31
2022-11-15T11:19:30.901Z,97728.38
2022-11-15T11:22:24.736Z,97724.84
2022-11-15T11:25:29.475Z,97722.94
2022-11-15T11:28:14.606Z,97718.66
2022-11-15T11:30:54.248Z,97717.09
2022-11-15T11:33:31.407Z,97719.47
2022-11-15T11:36:09.852Z,97712.00
2022-11-15T11:38:42.404Z,97713.13
2022-11-15T11:41:38.367Z,97712.38
2022-11-15T11:44:07.645Z,97711.47
2022-11-15T11:46:57.020Z,97704.56
2022-11-15T11:49:31.906Z,97697.88
2022-11-15T11:52:09.792Z,97695.53
2022-11-15T11:54:58.157Z,97693.97
2022-11-15T11:57:30.748Z,97684.94
2022-11-15T12:00:04.661Z,97685.72
2022-11-15T12:02:42.268Z,97679.88
2022-11-15T12:05:18.281Z,97677.53
2022-11-15T12:07:47.574Z,97675.91
2022-11-15T12:10:29.777Z,97664.91
2022-11-15T12:13:14.739Z,97666.50
2022-11-15T12:15:57.684Z,97667.22
2022-11-15T12:18:24.386Z,97667.28
2022-11-15T12:20:57.094Z,97660.91
2022-11-15T12:23:40.674Z,97653.69
2022-11-15T12:26:20.466Z,97648.59
2022-11-15T12:29:08.794Z,97645.03
2022-11-15T12:31:35.769Z,97648.31
2022-11-15T12:34:24.388Z,97647.19
2022-11-15T12:36:52.417Z,97648.00
2022-11-15T12:39:20.156Z,97652.31
2022-11-15T12:41:55.765Z,97651.94
2022-11-15T12:44:31.314Z,97644.16
2022-11-15T12:46:57.814Z,97649.66
2022-11-15T12:49:24.417Z,97644.59
2022-11-15T12:51:52.051Z,97644.53
2022-11-15T12:54:24.524Z,97641.41
2022-11-15T12:57:09.495Z,97635.16
2022-11-15T13:00:03.728Z,97634.44
2022-11-15T13:02:41.119Z,97632.41
2022-11-15T13:05:16.758Z,97624.59
2022-11-15T13:07:43.343Z,97618.34
2022-11-15T13:10:12.867Z,97618.78
2022-11-15T13:12:42.728Z,97615.59
2022-11-15T13:15:18.384Z,97617.13
2022-11-15T13:17:52.528Z,97616.31
2022-11-15T13:20:28.959Z,97613.56
2022-11-15T13:23:29.686Z,97604.84
2022-11-15T13:26:19.139Z,97593.97
2022-11-15T13:28:49.691Z,97592.66
2022-11-15T13:31:30.089Z,97586.44
2022-11-15T13:34:00.984Z,97579.81
2022-11-15T13:36:31.686Z,97580.25
2022-11-15T13:39:26.355Z,97571.94
2022-11-15T13:41:53.610Z,97579.47
2022-11-15T13:44:23.896Z,97579.47
2022-11-15T13:47:05.837Z,97569.31
2022-11-15T13:49:34.556Z,97574.75
2022-11-15T13:52:03.811Z,97567.69
2022-11-15T13:54:32.307Z,97561.03
2022-11-15T13:57:04.348Z,97557.91
2022-11-15T13:59:46.039Z,97559.03
2022-11-15T14:02:16.167Z,97552.81
2022-11-15T14:07:44.292Z,97543.34
2022-11-15T14:10:30.774Z,97541.03
2022-11-15T14:12:57.670Z,97541.03
2022-11-15T14:15:37.444Z,97523.41
2022-11-15T14:18:04.940Z,97523.84
2022-11-15T14:20:35.291Z,97525.41
2022-11-15T14:23:04.997Z,97523.09
2022-11-15T14:25:36.476Z,97521.97
2022-11-15T14:28:25.939Z,97511.44
2022-11-15T14:30:55.139Z,97511.88
2022-11-15T14:33:36.063Z,97502.97
2022-11-15T14:36:11.916Z,97501.00
2022-11-15T14:38:38.560Z,97496.69
2022-11-15T14:41:05.384Z,97488.94
2022-11-15T14:43:32.091Z,97494.16
2022-11-15T14:45:58.738Z,97493.81
2022-11-15T14:48:25.349Z,97486.84
2022-11-15T14:50:52.019Z,97484.59
2022-11-15T14:53:19.986Z,97486.16
2022-11-15T14:55:46.926Z,97475.28
2022-11-15T14:58:13.610Z,97483.84
2022-11-15T15:00:42.192Z,97475.69
2022-11-15T15:05:44.225Z,97463.44
2022-11-15T15:08:11.769Z,97458.63
2022-11-15T15:10:46.383Z,97450.81
2022-11-15T15:13:24.523Z,97448.56
2022-11-15T15:15:52.728Z,97445.78
2022-11-15T15:18:21.223Z,97447.75
2022-11-15T15:20:55.460Z,97436.00
2022-11-15T15:23:22.146Z,97434.50
2022-11-15T15:25:50.253Z,97431.41
2022-11-15T15:28:16.994Z,97431.47
2022-11-15T15:30:43.926Z,97427.56
2022-11-15T15:33:10.552Z,97422.09
2022-11-15T15:35:37.261Z,97409.53
2022-11-15T15:38:04.443Z,97418.53
2022-11-15T15:40:33.683Z,97425.22
2022-11-15T15:43:00.851Z,97418.94
2022-11-15T15:45:28.690Z,97405.72
2022-11-15T15:47:55.300Z,97402.97
2022-11-15T15:50:31.227Z,97410.41
2022-11-15T15:53:00.847Z,97399.94
2022-11-15T15:55:28.058Z,97401.16
2022-11-15T15:57:54.942Z,97408.59
2022-11-15T16:00:24.775Z,97397.66
2022-11-15T16:02:51.883Z,97386.69
2022-11-15T16:05:18.775Z,97387.88
2022-11-15T16:07:46.045Z,97382.81
2022-11-15T16:10:27.999Z,97383.25
2022-11-15T16:12:55.867Z,97380.16
2022-11-15T16:15:24.330Z,97383.66
2022-11-15T16:17:53.846Z,97370.81
2022-11-15T16:20:38.671Z,97372.34
2022-11-15T16:23:09.686Z,97366.88
2022-11-15T16:25:41.608Z,97366.50
2022-11-15T16:28:32.508Z,97355.50
2022-11-15T16:31:03.504Z,97363.72
2022-11-15T16:33:30.520Z,97360.97
2022-11-15T16:35:57.436Z,97355.97
2022-11-15T16:41:01.151Z,97351.19
2022-11-15T16:43:27.788Z,97349.28
2022-11-15T16:45:55.203Z,97347.69
2022-11-15T16:50:59.560Z,97345.78
2022-11-15T16:53:27.880Z,97341.13
2022-11-15T16:55:58.172Z,97333.25
2022-11-15T16:58:25.299Z,97332.53
2022-11-15T17:00:53.986Z,97335.63
2022-11-15T17:03:22.026Z,97329.41
2022-11-15T17:05:49.316Z,97331.75
2022-11-15T17:10:54.240Z,97318.13
2022-11-15T17:13:21.143Z,97316.09
2022-11-15T17:15:47.750Z,97312.25
2022-11-15T17:18:15.850Z,97310.66
2022-11-15T17:20:43.645Z,97310.22
2022-11-15T17:23:15.021Z,97305.63
2022-11-15T17:25:41.916Z,97305.28
2022-11-15T17:28:08.557Z,97296.25
2022-11-15T17:30:35.894Z,97294.31
2022-11-15T17:33:02.588Z,97288.47
2022-11-15T17:35:29.308Z,97291.22
2022-11-15T17:37:55.995Z,97281.50
2022-11-15T17:40:22.772Z,97285.78
2022-11-15T17:42:49.448Z,97286.22
2022-11-15T17:45:16.115Z,97296.75
2022-11-15T17:47:42.813Z,97293.28
2022-11-15T17:50:09.884Z,97282.75
2022-11-15T17:52:36.795Z,97285.09
2022-11-15T17:55:03.500Z,97290.16
2022-11-15T17:57:30.140Z,97284.28
2022-11-15T17:59:56.823Z,97287.84
2022-11-15T18:02:23.474Z,97285.06
2022-11-15T18:04:50.166Z,97282.75
2022-11-15T18:07:16.820Z,97289.38
2022-11-15T18:09:44.372Z,97290.59
2022-11-15T18:12:12.193Z,97277.19
2022-11-15T18:14:39.381Z,97274.03
2022-11-15T18:17:06.189Z,97273.09
2022-11-15T18:19:32.949Z,97275.53
2022-11-15T18:22:01.012Z,97270.13
2022-11-15T18:24:35.797Z,97276.84
2022-11-15T18:27:04.405Z,97272.16
2022-11-15T18:29:31.460Z,97265.13
2022-11-15T18:31:59.107Z,97267.47
2022-11-15T18:34:32.133Z,97259.31
2022-11-15T18:36:59.386Z,97264.03
2022-11-15T18:39:26.096Z,97261.72
2022-11-15T18:41:52.899Z,97263.66
2022-11-15T18:44:19.736Z,97260.19
2022-11-15T18:46:46.846Z,97260.97
2022-11-15T18:49:16.756Z,97260.13
2022-11-15T18:51:43.895Z,97261.34
2022-11-15T18:54:12.705Z,97259.38
2022-11-15T18:56:40.276Z,97265.63
2022-11-15T18:59:08.862Z,97271.47
2022-11-15T19:01:40.935Z,97268.72
2022-11-15T19:04:17.673Z,97267.16
2022-11-15T19:06:46.593Z,97264.41
2022-11-15T19:09:16.414Z,97267.97
2022-11-15T19:11:46.425Z,97277.00
2022-11-15T19:14:16.293Z,97270.75
2022-11-15T19:16:45.636Z,97267.66
2022-11-15T19:19:14.879Z,97264.94
2022-11-15T19:21:41.854Z,97266.50
2022-11-15T19:24:08.715Z,97265.69
2022-11-15T19:26:37.964Z,97262.91
2022-11-15T19:29:05.983Z,97264.13
2022-11-15T19:31:33.227Z,97258.22
2022-11-15T19:34:03.412Z,97262.53
2022-11-15T19:36:35.853Z,97253.97
2022-11-15T19:39:08.341Z,97248.47
2022-11-15T19:41:36.636Z,97241.88
2022-11-15T19:44:03.781Z,97239.56
2022-11-15T19:46:30.461Z,97237.28
2022-11-15T19:48:57.157Z,97234.59
2022-11-15T19:51:26.114Z,97227.56
2022-11-15T19:53:54.752Z,97214.63
2022-11-15T19:56:22.421Z,97213.47
2022-11-15T19:58:54.217Z,97214.28
2022-11-15T20:01:29.017Z,97207.22
2022-11-15T20:03:58.739Z,97209.22
2022-11-15T20:09:02.443Z,97199.44
2022-11-15T20:11:29.207Z,97196.72
2022-11-15T20:14:01.994Z,97192.81
2022-11-15T20:16:29.427Z,97195.59
2022-11-15T20:18:56.034Z,97189.38
2022-11-15T20:21:22.899Z,97183.22
2022-11-15T20:23:51.145Z,97184.78
2022-11-15T20:28:50.878Z,97176.59
2022-11-15T20:31:19.469Z,97176.94
2022-11-15T20:33:46.171Z,97169.84
2022-11-15T20:38:59.608Z,97163.63
2022-11-15T20:41:27.563Z,97167.50
2022-11-15T20:43:54.258Z,97154.25
2022-11-15T20:46:21.335Z,97147.13
2022-11-15T20:48:48.041Z,97148.34
2022-11-15T20:51:17.035Z,97149.13
2022-11-15T20:53:45.616Z,97159.34
2022-11-15T20:56:15.253Z,97162.50
2022-11-15T20:58:43.478Z,97162.94
2022-11-15T21:01:13.919Z,97158.66
2022-11-15T21:03:41.204Z,97150.50
2022-11-15T21:06:08.399Z,97145.75
2022-11-15T21:08:53.659Z,97132.06
2022-11-15T21:11:39.259Z,97136.19
2022-11-15T21:14:09.354Z,97139.31
2022-11-15T21:16:36.810Z,97144.47
2022-11-15T21:19:03.691Z,97137.88
2022-11-15T21:21:30.463Z,97139.13
2022-11-15T21:23:57.160Z,97137.56
2022-11-15T21:26:23.958Z,97127.78
2022-11-15T21:28:50.612Z,97130.78
2022-11-15T21:31:17.215Z,97125.31
2022-11-15T21:33:43.859Z,97125.84
2022-11-15T21:36:10.530Z,97113.47
2022-11-15T21:38:37.183Z,97108.84
2022-11-15T21:41:04.230Z,97109.25
2022-11-15T21:43:30.847Z,97103.06
2022-11-15T21:46:03.949Z,97102.34
2022-11-15T21:48:33.125Z,97108.56
2022-11-15T21:51:02.672Z,97094.44
2022-11-15T21:53:30.025Z,97106.13
2022-11-15T21:55:56.648Z,97091.66
2022-11-15T21:58:24.375Z,97087.03
2022-11-15T22:01:10.077Z,97084.38
2022-11-15T22:03:36.887Z,97084.03
2022-11-15T22:06:03.647Z,97073.56
2022-11-15T22:08:31.676Z,97068.03
2022-11-15T22:10:59.316Z,97069.56
2022-11-15T22:13:26.416Z,97064.50
2022-11-15T22:15:55.609Z,97056.66
2022-11-15T22:18:31.443Z,97058.25
2022-11-15T22:21:03.362Z,97064.97
2022-11-15T22:23:31.965Z,97069.31
2022-11-15T22:25:59.122Z,97066.59
2022-11-15T22:28:26.122Z,97067.78
2022-11-15T22:30:54.615Z,97068.19
2022-11-15T22:33:23.523Z,97063.88
2022-11-15T22:35:50.452Z,97069.38
2022-11-15T22:38:17.439Z,97072.19
2022-11-15T22:43:18.369Z,97081.91
2022-11-15T22:46:04.714Z,97087.47
2022-11-15T22:48:34.077Z,97082.78
2022-11-15T22:51:01.343Z,97089.09
2022-11-15T22:53:29.321Z,97085.22
2022-11-15T22:55:58.152Z,97086.75
2022-11-15T22:58:26.747Z,97081.72
2022-11-15T23:00:59.416Z,97075.03
2022-11-15T23:06:06.619Z,97068.69
2022-11-15T23:08:33.936Z,97073.44
2022-11-15T23:11:22.891Z,97073.75
2022-11-15T23:13:52.660Z,97080.09
2022-11-15T23:16:23.187Z,97079.78
2022-11-15T23:19:00.699Z,97075.84
2022-11-15T23:21:47.517Z,97068.81
2022-11-15T23:24:14.991Z,97070.47
2022-11-15T23:26:42.063Z,97070.50
2022-11-15T23:29:11.352Z,97062.31
2022-11-15T23:32:01.454Z,97061.16
2022-11-15T23:34:30.432Z,97062.38
2022-11-15T23:36:57.189Z,97056.56
2022-11-15T23:39:23.905Z,97055.00
2022-11-15T23:41:50.639Z,97058.50
2022-11-15T23:44:17.491Z,97061.16
2022-11-15T23:46:44.400Z,97050.97
2022-11-15T23:49:11.398Z,97066.63
2022-11-15T23:51:38.393Z,97049.47
2022-11-15T23:54:05.919Z,97050.66
2022-11-15T23:56:32.905Z,97052.47
2022-11-15T23:58:59.556Z,97053.97
